PWSweather.com
Personal Weather Stations
Station Observations
AS787
Cloppers Mill East, Germantown, MD 20874-2154

Cloppers Mill EastGermantown, MD 20874-2154

Lat: 39.1522, Lon: -77.2679

Elevation: 318

Station Type: 1-Wire

http://www.cloppermillweather.org/

High Low Average
Temperature 38.9°F3.8°F 28.2°F-2.1°F 34.0°F1.1°F
Dew Point 27.6°F-2.4°F 13.8°F-10.1°F 18.8°F-7.3°F
Winds 4.1 mph NNW6.6 mph NNW Calm Calm 0.8 mph 1.3 mph
Wind Gusts 11.0 mph17.7 mph -- 3.6 mph5.8 mph
Humidity 77% 46% 54%
Pressure 30.09 in1019.00 in 29.48 in998.30 in -
Precipitation 0.00 in0.00 in - -
Hour Temp Dew Point Humidity Winds Wind Gusts Pressure Precip Precip Rate Daily Precip Total
12:10 AM 33.7°F0.9°C 15.0°F-9.4°C 46% 0.5 mph SW0.8 kmh SW 3.0 mph4.8 kmh 29.54 in1000.3 mb 0.00 in0.0 mm 0.00 in0.0 mm 0.00 in0.0 mm
12:40 AM 33.8°F1.0°C 15.7°F-9.1°C 47% 0.1 mph SW0.2 kmh SW 1.0 mph1.6 kmh 29.53 in1000.0 mb 0.00 in0.0 mm 0.00 in0.0 mm 0.00 in0.0 mm
01:10 AM 34.0°F1.1°C 15.6°F-9.1°C 47% Calm Calm -- 29.51 in999.3 mb 0.00 in0.0 mm 0.00 in0.0 mm 0.00 in0.0 mm
01:40 AM 34.0°F1.1°C 15.8°F-9.0°C 47% 0.0 mph WSW0.0 kmh WSW 3.0 mph4.8 kmh 29.50 in999.0 mb 0.00 in0.0 mm 0.00 in0.0 mm 0.00 in0.0 mm
02:10 AM 33.7°F0.9°C 16.1°F-8.8°C 48% Calm Calm 1.0 mph1.6 kmh 29.49 in998.6 mb 0.00 in0.0 mm 0.00 in0.0 mm 0.00 in0.0 mm
02:40 AM 33.2°F0.7°C 16.5°F-8.6°C 50% 0.1 mph WSW0.2 kmh WSW 2.0 mph3.2 kmh 29.49 in998.6 mb 0.00 in0.0 mm 0.00 in0.0 mm 0.00 in0.0 mm
03:10 AM 33.9°F1.1°C 17.3°F-8.2°C 50% Calm Calm -- 29.48 in998.3 mb 0.00 in0.0 mm 0.00 in0.0 mm 0.00 in0.0 mm
03:40 AM 34.3°F1.3°C 17.6°F-8.0°C 50% Calm Calm 1.0 mph1.6 kmh 29.48 in998.3 mb 0.00 in0.0 mm 0.00 in0.0 mm 0.00 in0.0 mm
04:10 AM 34.9°F1.6°C 18.5°F-7.5°C 51% 0.4 mph SSW0.6 kmh SSW 3.0 mph4.8 kmh 29.48 in998.3 mb 0.00 in0.0 mm 0.00 in0.0 mm 0.00 in0.0 mm
04:40 AM 35.0°F1.7°C 18.8°F-7.3°C 51% 1.0 mph SW1.6 kmh SW 6.0 mph9.7 kmh 29.49 in998.6 mb 0.00 in0.0 mm 0.00 in0.0 mm 0.00 in0.0 mm
05:10 AM 34.5°F1.4°C 18.7°F-7.4°C 52% 0.8 mph SSW1.3 kmh SSW 4.0 mph6.4 kmh 29.51 in999.3 mb 0.00 in0.0 mm 0.00 in0.0 mm 0.00 in0.0 mm
05:40 AM 34.0°F1.1°C 19.0°F-7.2°C 54% 0.7 mph SSW1.1 kmh SSW 3.0 mph4.8 kmh 29.53 in1000.0 mb 0.00 in0.0 mm 0.00 in0.0 mm 0.00 in0.0 mm
06:10 AM 33.5°F0.8°C 19.0°F-7.2°C 55% 0.0 mph SSW0.0 kmh SSW 2.0 mph3.2 kmh 29.56 in1001.0 mb 0.00 in0.0 mm 0.00 in0.0 mm 0.00 in0.0 mm
06:40 AM 32.9°F0.5°C 19.1°F-7.2°C 57% Calm Calm -- 29.58 in1001.7 mb 0.00 in0.0 mm 0.00 in0.0 mm 0.00 in0.0 mm
07:10 AM 32.2°F0.1°C 19.0°F-7.2°C 58% Calm Calm -- 29.60 in1002.4 mb 0.00 in0.0 mm 0.00 in0.0 mm 0.00 in0.0 mm
07:40 AM 30.2°F-1.0°C 20.1°F-6.6°C 66% Calm Calm -- 29.62 in1003.0 mb 0.00 in0.0 mm 0.00 in0.0 mm 0.00 in0.0 mm
08:10 AM 30.0°F-1.1°C 21.3°F-5.9°C 70% Calm Calm -- 29.66 in1004.4 mb 0.00 in0.0 mm 0.00 in0.0 mm 0.00 in0.0 mm
08:40 AM 34.2°F1.2°C 27.6°F-2.4°C 77% 1.0 mph NNW1.6 kmh NNW 4.0 mph6.4 kmh 29.69 in1005.4 mb 0.00 in0.0 mm 0.00 in0.0 mm 0.00 in0.0 mm
09:10 AM 38.4°F3.6°C 27.6°F-2.4°C 65% 1.0 mph ESE1.6 kmh ESE 7.0 mph11.3 kmh 29.69 in1005.4 mb 0.00 in0.0 mm 0.00 in0.0 mm 0.00 in0.0 mm
09:40 AM 38.9°F3.8°C 27.1°F-2.7°C 62% 4.1 mph NNW6.6 kmh NNW 11.0 mph17.7 kmh 29.73 in1006.8 mb 0.00 in0.0 mm 0.00 in0.0 mm 0.00 in0.0 mm
10:10 AM 38.9°F3.8°C 26.3°F-3.2°C 60% 4.1 mph SE6.6 kmh SE 9.0 mph14.5 kmh 29.77 in1008.1 mb 0.00 in0.0 mm 0.00 in0.0 mm 0.00 in0.0 mm
10:40 AM 36.4°F2.4°C 22.2°F-5.4°C 56% 1.0 mph 1.6 kmh 10.0 mph16.1 kmh 29.82 in1009.8 mb 0.00 in0.0 mm 0.00 in0.0 mm 0.00 in0.0 mm
11:10 AM 37.8°F3.2°C 22.1°F-5.5°C 53% 0.7 mph SSE1.1 kmh SSE 7.0 mph11.3 kmh 29.84 in1010.5 mb 0.00 in0.0 mm 0.00 in0.0 mm 0.00 in0.0 mm
11:40 AM 35.6°F2.0°C 20.7°F-6.3°C 54% 1.0 mph NE1.6 kmh NE 6.0 mph9.7 kmh 29.86 in1011.2 mb 0.00 in0.0 mm 0.00 in0.0 mm 0.00 in0.0 mm
12:10 PM 36.3°F2.4°C 20.6°F-6.3°C 53% 1.2 mph NNW1.9 kmh NNW 7.0 mph11.3 kmh 29.87 in1011.5 mb 0.00 in0.0 mm 0.00 in0.0 mm 0.00 in0.0 mm
12:40 PM 36.6°F2.6°C 20.2°F-6.6°C 51% 2.1 mph 3.4 kmh 5.0 mph8.0 kmh 29.87 in1011.5 mb 0.00 in0.0 mm 0.00 in0.0 mm 0.00 in0.0 mm
01:10 PM 37.6°F3.1°C 19.3°F-7.1°C 47% 1.9 mph NNW3.1 kmh NNW 5.0 mph8.0 kmh 29.87 in1011.5 mb 0.00 in0.0 mm 0.00 in0.0 mm 0.00 in0.0 mm
01:40 PM 37.8°F3.2°C 19.3°F-7.1°C 47% 1.7 mph 2.7 kmh 6.0 mph9.7 kmh 29.89 in1012.2 mb 0.00 in0.0 mm 0.00 in0.0 mm 0.00 in0.0 mm
02:10 PM 38.5°F3.6°C 19.4°F-7.0°C 46% 2.1 mph S3.4 kmh S 6.0 mph9.7 kmh 29.88 in1011.9 mb 0.00 in0.0 mm 0.00 in0.0 mm 0.00 in0.0 mm
02:40 PM 38.4°F3.6°C 19.8°F-6.8°C 47% 1.4 mph NNE2.3 kmh NNE 5.0 mph8.0 kmh 29.90 in1012.5 mb 0.00 in0.0 mm 0.00 in0.0 mm 0.00 in0.0 mm
03:10 PM 38.0°F3.3°C 19.5°F-6.9°C 47% 2.8 mph ESE4.5 kmh ESE 8.0 mph12.9 kmh 29.93 in1013.5 mb 0.00 in0.0 mm 0.00 in0.0 mm 0.00 in0.0 mm
03:40 PM 38.2°F3.4°C 19.3°F-7.1°C 46% 1.3 mph 2.1 kmh 5.0 mph8.0 kmh 29.94 in1013.9 mb 0.00 in0.0 mm 0.00 in0.0 mm 0.00 in0.0 mm
04:10 PM 35.4°F1.9°C 18.7°F-7.4°C 50% 0.9 mph 1.4 kmh 3.0 mph4.8 kmh 29.95 in1014.2 mb 0.00 in0.0 mm 0.00 in0.0 mm 0.00 in0.0 mm
04:40 PM 33.8°F1.0°C 18.7°F-7.4°C 54% 0.3 mph ENE0.5 kmh ENE 2.0 mph3.2 kmh 29.96 in1014.6 mb 0.00 in0.0 mm 0.00 in0.0 mm 0.00 in0.0 mm
05:10 PM 32.9°F0.5°C 18.1°F-7.7°C 54% 1.8 mph 2.9 kmh 6.0 mph9.7 kmh 29.97 in1014.9 mb 0.00 in0.0 mm 0.00 in0.0 mm 0.00 in0.0 mm
05:40 PM 32.7°F0.4°C 17.8°F-7.9°C 54% 0.7 mph NNW1.1 kmh NNW 7.0 mph11.3 kmh 29.99 in1015.6 mb 0.00 in0.0 mm 0.00 in0.0 mm 0.00 in0.0 mm
06:10 PM 32.4°F0.2°C 18.4°F-7.6°C 56% 1.6 mph NNW2.6 kmh NNW 3.0 mph4.8 kmh 30.01 in1016.3 mb 0.00 in0.0 mm 0.00 in0.0 mm 0.00 in0.0 mm
06:40 PM 32.1°F0.1°C 17.9°F-7.8°C 55% 0.3 mph NNW0.5 kmh NNW 5.0 mph8.0 kmh 30.03 in1016.9 mb 0.00 in0.0 mm 0.00 in0.0 mm 0.00 in0.0 mm
07:10 PM 31.8°F-0.1°C 17.7°F-7.9°C 56% 0.6 mph NNW1.0 kmh NNW 3.0 mph4.8 kmh 30.04 in1017.3 mb 0.00 in0.0 mm 0.00 in0.0 mm 0.00 in0.0 mm
07:40 PM 31.4°F-0.3°C 17.5°F-8.1°C 56% 0.2 mph NNW0.3 kmh NNW 3.0 mph4.8 kmh 30.05 in1017.6 mb 0.00 in0.0 mm 0.00 in0.0 mm 0.00 in0.0 mm
08:10 PM 31.2°F-0.4°C 16.5°F-8.6°C 54% Calm Calm 2.0 mph3.2 kmh 30.07 in1018.3 mb 0.00 in0.0 mm 0.00 in0.0 mm 0.00 in0.0 mm
08:40 PM 30.7°F-0.7°C 16.4°F-8.7°C 55% Calm Calm -- 30.07 in1018.3 mb 0.00 in0.0 mm 0.00 in0.0 mm 0.00 in0.0 mm
09:10 PM 30.1°F-1.1°C 16.7°F-8.5°C 57% Calm Calm 2.0 mph3.2 kmh 30.07 in1018.3 mb 0.00 in0.0 mm 0.00 in0.0 mm 0.00 in0.0 mm
09:40 PM 30.1°F-1.1°C 16.4°F-8.7°C 56% 0.8 mph NNW1.3 kmh NNW 3.0 mph4.8 kmh 30.07 in1018.3 mb 0.00 in0.0 mm 0.00 in0.0 mm 0.00 in0.0 mm
10:10 PM 29.8°F-1.2°C 15.5°F-9.2°C 55% Calm Calm 4.0 mph6.4 kmh 30.08 in1018.6 mb 0.00 in0.0 mm 0.00 in0.0 mm 0.00 in0.0 mm
10:40 PM 29.2°F-1.6°C 15.0°F-9.4°C 55% 0.3 mph 0.5 kmh 2.0 mph3.2 kmh 30.08 in1018.6 mb 0.00 in0.0 mm 0.00 in0.0 mm 0.00 in0.0 mm
11:10 PM 28.8°F-1.8°C 13.8°F-10.1°C 53% Calm Calm -- 30.09 in1019.0 mb 0.00 in0.0 mm 0.00 in0.0 mm 0.00 in0.0 mm
11:40 PM 28.2°F-2.1°C 14.2°F-9.9°C 55% Calm Calm -- 30.08 in1018.6 mb 0.00 in0.0 mm 0.00 in0.0 mm 0.00 in0.0 mm